sensor_id;sensor_type;location;lat;lon;timestamp;pressure;altitude;pressure_sealevel;temperature;humidity
21449;BME280;10885;52.830;13.788;2023-02-13T06:09:41;103259.41;;;5.65;91.74
21449;BME280;10885;52.830;13.788;2023-02-13T06:15:02;103264.84;;;5.61;91.04
21449;BME280;10885;52.830;13.788;2023-02-13T06:20:23;103264.50;;;5.65;90.27
21449;BME280;10885;52.830;13.788;2023-02-13T06:25:44;103268.13;;;5.67;89.37
21449;BME280;10885;52.830;13.788;2023-02-13T06:31:05;103281.22;;;5.63;89.37
21449;BME280;10885;52.830;13.788;2023-02-13T06:36:26;103279.22;;;5.68;88.95
21449;BME280;10885;52.830;13.788;2023-02-13T06:41:47;103276.13;;;5.63;89.79
21449;BME280;10885;52.830;13.788;2023-02-13T06:47:08;103281.75;;;5.61;88.95
21449;BME280;10885;52.830;13.788;2023-02-13T06:52:29;103285.03;;;5.60;89.96
21449;BME280;10885;52.830;13.788;2023-02-13T06:57:50;103286.63;;;5.52;89.54
21449;BME280;10885;52.830;13.788;2023-02-13T07:03:12;103290.28;;;5.54;89.37
21449;BME280;10885;52.830;13.788;2023-02-13T07:08:33;103296.25;;;5.54;89.25
21449;BME280;10885;52.830;13.788;2023-02-13T07:13:54;103306.44;;;5.54;90.17
21449;BME280;10885;52.830;13.788;2023-02-13T07:19:15;103300.81;;;5.57;90.17
21449;BME280;10885;52.830;13.788;2023-02-13T07:24:36;103304.81;;;5.62;88.68
21449;BME280;10885;52.830;13.788;2023-02-13T07:29:57;103303.22;;;5.70;87.57
21449;BME280;10885;52.830;13.788;2023-02-13T07:35:18;103311.94;;;5.72;85.13
21449;BME280;10885;52.830;13.788;2023-02-13T07:40:39;103310.88;;;5.84;84.18
21449;BME280;10885;52.830;13.788;2023-02-13T07:46:01;103311.97;;;5.93;83.97
21449;BME280;10885;52.830;13.788;2023-02-13T07:51:22;103316.56;;;6.03;82.62
21449;BME280;10885;52.830;13.788;2023-02-13T07:56:46;103323.81;;;6.14;81.93
21449;BME280;10885;52.830;13.788;2023-02-13T08:02:11;103315.25;;;6.07;82.66
21449;BME280;10885;52.830;13.788;2023-02-13T08:07:33;103325.66;;;6.01;83.25
21449;BME280;10885;52.830;13.788;2023-02-13T08:12:54;103314.56;;;6.08;83.66
21449;BME280;10885;52.830;13.788;2023-02-13T08:18:15;103313.63;;;6.14;83.80
21449;BME280;10885;52.830;13.788;2023-02-13T08:23:38;103309.47;;;6.15;83.63
21449;BME280;10885;52.830;13.788;2023-02-13T08:28:59;103313.47;;;6.20;84.20
21449;BME280;10885;52.830;13.788;2023-02-13T08:34:20;103318.19;;;6.24;83.81
21449;BME280;10885;52.830;13.788;2023-02-13T08:39:41;103317.09;;;6.29;84.07
21449;BME280;10885;52.830;13.788;2023-02-13T08:45:02;103317.66;;;6.27;84.25
21449;BME280;10885;52.830;13.788;2023-02-13T08:50:23;103318.53;;;6.34;84.71
21449;BME280;10885;52.830;13.788;2023-02-13T08:55:55;103334.72;;;6.42;84.53
21449;BME280;10885;52.830;13.788;2023-02-13T09:01:17;103328.56;;;6.47;84.36
21449;BME280;10885;52.830;13.788;2023-02-13T09:06:38;103337.63;;;6.52;84.03
21449;BME280;10885;52.830;13.788;2023-02-13T09:11:59;103340.41;;;6.47;83.99
21449;BME280;10885;52.830;13.788;2023-02-13T09:17:20;103349.66;;;6.53;84.44
21449;BME280;10885;52.830;13.788;2023-02-13T09:22:41;103339.84;;;6.56;84.46
21449;BME280;10885;52.830;13.788;2023-02-13T09:28:03;103328.53;;;6.62;84.23
21449;BME280;10885;52.830;13.788;2023-02-13T09:33:24;103325.28;;;6.63;84.01
21449;BME280;10885;52.830;13.788;2023-02-13T09:38:46;103327.78;;;6.70;84.28
21449;BME280;10885;52.830;13.788;2023-02-13T09:50:18;103336.31;;;6.77;84.59
21449;BME280;10885;52.830;13.788;2023-02-13T09:55:46;103334.31;;;6.82;84.51
21449;BME280;10885;52.830;13.788;2023-02-13T10:01:29;103343.78;;;6.90;84.65
21449;BME280;10885;52.830;13.788;2023-02-13T10:07:13;103338.13;;;6.93;84.61
21449;BME280;10885;52.830;13.788;2023-02-13T10:12:51;103335.00;;;7.03;84.99
21449;BME280;10885;52.830;13.788;2023-02-13T10:18:18;103335.72;;;7.02;84.74
21449;BME280;10885;52.830;13.788;2023-02-13T10:23:45;103343.50;;;7.17;84.83
21449;BME280;10885;52.830;13.788;2023-02-13T10:29:41;103327.09;;;7.23;85.00
21449;BME280;10885;52.830;13.788;2023-02-13T10:35:31;103329.19;;;7.34;84.02
21449;BME280;10885;52.830;13.788;2023-02-13T10:58:07;103310.75;;;7.44;83.90
21449;BME280;10885;52.830;13.788;2023-02-13T11:03:29;103305.22;;;7.55;83.38
21449;BME280;10885;52.830;13.788;2023-02-13T11:08:50;103297.69;;;7.64;82.60
21449;BME280;10885;52.830;13.788;2023-02-13T11:14:19;103293.44;;;7.71;81.63
21449;BME280;10885;52.830;13.788;2023-02-13T11:19:50;103296.00;;;7.71;81.24
21449;BME280;10885;52.830;13.788;2023-02-13T11:25:25;103295.06;;;7.78;80.52
21449;BME280;10885;52.830;13.788;2023-02-13T11:30:49;103286.84;;;7.73;79.55
21449;BME280;10885;52.830;13.788;2023-02-13T11:36:22;103280.13;;;7.74;78.89
21449;BME280;10885;52.830;13.788;2023-02-13T11:41:45;103280.22;;;7.83;77.72
21449;BME280;10885;52.830;13.788;2023-02-13T11:47:06;103279.44;;;7.91;76.26
21449;BME280;10885;52.830;13.788;2023-02-13T11:52:30;103288.00;;;7.91;75.87
21449;BME280;10885;52.830;13.788;2023-02-13T12:03:31;103285.81;;;7.94;74.51
21449;BME280;10885;52.830;13.788;2023-02-13T12:08:53;103285.03;;;7.95;74.43
21449;BME280;10885;52.830;13.788;2023-02-13T12:14:36;103283.56;;;7.97;74.38
21449;BME280;10885;52.830;13.788;2023-02-13T12:19:59;103272.00;;;7.85;73.96
21449;BME280;10885;52.830;13.788;2023-02-13T13:00:14;103270.59;;;7.80;71.22
21449;BME280;10885;52.830;13.788;2023-02-13T13:05:58;103275.63;;;7.64;70.66
21449;BME280;10885;52.830;13.788;2023-02-13T13:23:30;103269.13;;;7.52;70.64
21449;BME280;10885;52.830;13.788;2023-02-13T13:28:54;103283.63;;;7.37;69.65
21449;BME280;10885;52.830;13.788;2023-02-13T13:34:22;103278.56;;;7.30;69.65
21449;BME280;10885;52.830;13.788;2023-02-13T13:51:06;103258.91;;;7.22;68.69
21449;BME280;10885;52.830;13.788;2023-02-13T14:07:40;103227.22;;;7.20;68.64
21449;BME280;10885;52.830;13.788;2023-02-13T14:13:01;103223.13;;;7.06;68.30
21449;BME280;10885;52.830;13.788;2023-02-13T14:18:24;103224.56;;;7.11;68.76
21449;BME280;10885;52.830;13.788;2023-02-13T14:23:47;103231.50;;;7.05;68.32
21449;BME280;10885;52.830;13.788;2023-02-13T14:34:34;103213.31;;;7.02;68.80
21449;BME280;10885;52.830;13.788;2023-02-13T14:45:46;103197.59;;;7.06;67.62
21449;BME280;10885;52.830;13.788;2023-02-13T14:51:20;103190.56;;;6.96;67.62
21449;BME280;10885;52.830;13.788;2023-02-13T14:56:48;103191.50;;;6.96;67.76
21449;BME280;10885;52.830;13.788;2023-02-13T15:02:17;103201.13;;;6.99;66.84
21449;BME280;10885;52.830;13.788;2023-02-13T15:07:46;103195.91;;;6.90;66.65
21449;BME280;10885;52.830;13.788;2023-02-13T15:13:15;103201.19;;;6.85;67.01
21449;BME280;10885;52.830;13.788;2023-02-13T15:18:49;103193.38;;;6.83;67.11
21449;BME280;10885;52.830;13.788;2023-02-13T15:24:13;103192.09;;;6.80;67.62
21449;BME280;10885;52.830;13.788;2023-02-13T15:29:34;103178.66;;;6.73;67.51
21449;BME280;10885;52.830;13.788;2023-02-13T15:35:20;103179.59;;;6.67;67.52
21449;BME280;10885;52.830;13.788;2023-02-13T15:40:43;103173.44;;;6.57;67.48
21449;BME280;10885;52.830;13.788;2023-02-13T15:46:07;103179.63;;;6.52;67.86
21449;BME280;10885;52.830;13.788;2023-02-13T15:51:38;103175.63;;;6.54;68.03
21449;BME280;10885;52.830;13.788;2023-02-13T15:57:02;103190.03;;;6.54;67.73
21449;BME280;10885;52.830;13.788;2023-02-13T16:02:28;103199.13;;;6.52;67.70
21449;BME280;10885;52.830;13.788;2023-02-13T16:07:56;103197.31;;;6.51;68.25
21449;BME280;10885;52.830;13.788;2023-02-13T16:13:17;103199.13;;;6.52;67.79
21449;BME280;10885;52.830;13.788;2023-02-13T16:18:40;103202.97;;;6.48;67.63
21449;BME280;10885;52.830;13.788;2023-02-13T16:24:03;103203.19;;;6.43;68.44
21449;BME280;10885;52.830;13.788;2023-02-13T16:29:27;103199.88;;;6.44;68.45
21449;BME280;10885;52.830;13.788;2023-02-13T16:34:49;103205.75;;;6.35;68.79
21449;BME280;10885;52.830;13.788;2023-02-13T16:45:50;103210.69;;;6.12;68.55
21449;BME280;10885;52.830;13.788;2023-02-13T16:51:11;103222.16;;;6.16;68.65
21449;BME280;10885;52.830;13.788;2023-02-13T17:07:35;103229.22;;;6.18;69.43
21449;BME280;10885;52.830;13.788;2023-02-13T17:12:59;103236.69;;;6.24;68.95
21449;BME280;10885;52.830;13.788;2023-02-13T17:18:21;103223.22;;;6.18;69.39
21449;BME280;10885;52.830;13.788;2023-02-13T17:23:42;103231.06;;;6.12;69.21
21449;BME280;10885;52.830;13.788;2023-02-13T17:29:03;103239.63;;;6.06;69.11
21449;BME280;10885;52.830;13.788;2023-02-13T17:34:24;103240.69;;;6.01;69.60
21449;BME280;10885;52.830;13.788;2023-02-13T17:39:45;103239.59;;;5.91;69.07
21449;BME280;10885;52.830;13.788;2023-02-13T17:45:09;103240.13;;;5.89;69.64
21449;BME280;10885;52.830;13.788;2023-02-13T17:50:34;103234.50;;;5.91;69.35
21449;BME280;10885;52.830;13.788;2023-02-13T17:55:55;103239.78;;;5.86;68.21
21449;BME280;10885;52.830;13.788;2023-02-13T18:01:16;103242.13;;;5.84;68.42
21449;BME280;10885;52.830;13.788;2023-02-13T18:06:36;103248.88;;;5.91;68.77
21449;BME280;10885;52.830;13.788;2023-02-13T18:11:57;103253.41;;;5.93;68.38
21449;BME280;10885;52.830;13.788;2023-02-13T18:17:25;103251.25;;;5.75;69.00
21449;BME280;10885;52.830;13.788;2023-02-13T18:22:47;103247.75;;;5.74;69.06
21449;BME280;10885;52.830;13.788;2023-02-13T18:28:10;103248.13;;;5.85;69.07
21449;BME280;10885;52.830;13.788;2023-02-13T18:33:31;103245.22;;;5.82;68.60
21449;BME280;10885;52.830;13.788;2023-02-13T18:38:52;103254.88;;;5.77;69.03
21449;BME280;10885;52.830;13.788;2023-02-13T18:44:13;103243.25;;;5.79;68.45
21449;BME280;10885;52.830;13.788;2023-02-13T18:49:43;103254.31;;;5.80;68.36
21449;BME280;10885;52.830;13.788;2023-02-13T18:55:07;103262.31;;;5.83;68.61
21449;BME280;10885;52.830;13.788;2023-02-13T19:00:29;103257.06;;;5.81;68.68
21449;BME280;10885;52.830;13.788;2023-02-13T19:05:50;103258.16;;;5.83;68.86
21449;BME280;10885;52.830;13.788;2023-02-13T19:11:16;103255.59;;;5.83;68.53
21449;BME280;10885;52.830;13.788;2023-02-13T19:16:37;103252.34;;;5.77;68.71
21449;BME280;10885;52.830;13.788;2023-02-13T19:21:58;103249.41;;;5.74;68.41
21449;BME280;10885;52.830;13.788;2023-02-13T19:27:19;103252.69;;;5.66;68.43
21449;BME280;10885;52.830;13.788;2023-02-13T19:32:40;103252.47;;;5.64;68.57
21449;BME280;10885;52.830;13.788;2023-02-13T19:38:01;103264.84;;;5.68;69.00
21449;BME280;10885;52.830;13.788;2023-02-13T19:43:22;103267.75;;;5.64;68.76
21449;BME280;10885;52.830;13.788;2023-02-13T19:48:43;103266.47;;;5.61;68.29
21449;BME280;10885;52.830;13.788;2023-02-13T19:54:07;103269.75;;;5.60;68.67
21449;BME280;10885;52.830;13.788;2023-02-13T19:59:28;103266.84;;;5.64;68.46
21449;BME280;10885;52.830;13.788;2023-02-13T20:04:49;103275.19;;;5.63;68.59
21449;BME280;10885;52.830;13.788;2023-02-13T20:10:10;103273.59;;;5.63;68.67
21449;BME280;10885;52.830;13.788;2023-02-13T20:15:30;103273.75;;;5.65;69.33
21449;BME280;10885;52.830;13.788;2023-02-13T20:20:52;103270.84;;;5.69;69.05
21449;BME280;10885;52.830;13.788;2023-02-13T20:26:13;103267.19;;;5.67;68.78
21449;BME280;10885;52.830;13.788;2023-02-13T20:31:36;103283.56;;;5.69;68.38
21449;BME280;10885;52.830;13.788;2023-02-13T20:37:01;103291.03;;;5.67;68.80
21449;BME280;10885;52.830;13.788;2023-02-13T20:42:21;103293.94;;;5.63;68.88
21449;BME280;10885;52.830;13.788;2023-02-13T20:47:43;103308.66;;;5.66;68.56
21449;BME280;10885;52.830;13.788;2023-02-13T20:53:05;103302.84;;;5.67;68.52
21449;BME280;10885;52.830;13.788;2023-02-13T20:58:26;103308.31;;;5.70;68.52
21449;BME280;10885;52.830;13.788;2023-02-13T21:03:47;103311.22;;;5.66;68.37
21449;BME280;10885;52.830;13.788;2023-02-13T21:09:13;103311.22;;;5.66;68.05
21449;BME280;10885;52.830;13.788;2023-02-13T21:14:34;103310.31;;;5.65;68.48
21449;BME280;10885;52.830;13.788;2023-02-13T21:19:55;103307.34;;;5.55;68.25
21449;BME280;10885;52.830;13.788;2023-02-13T21:25:16;103311.72;;;5.56;68.31
21449;BME280;10885;52.830;13.788;2023-02-13T21:30:38;103310.81;;;5.55;68.57
21449;BME280;10885;52.830;13.788;2023-02-13T21:36:05;103305.38;;;5.60;68.50
21449;BME280;10885;52.830;13.788;2023-02-13T21:41:26;103311.38;;;5.60;68.61
21449;BME280;10885;52.830;13.788;2023-02-13T21:46:47;103311.91;;;5.57;68.91
21449;BME280;10885;52.830;13.788;2023-02-13T21:52:08;103308.28;;;5.55;68.66
21449;BME280;10885;52.830;13.788;2023-02-13T21:57:29;103297.72;;;5.52;68.81
21449;BME280;10885;52.830;13.788;2023-02-13T22:02:50;103298.81;;;5.47;69.37
21449;BME280;10885;52.830;13.788;2023-02-13T22:08:13;103299.16;;;5.43;68.93
21449;BME280;10885;52.830;13.788;2023-02-13T22:13:34;103302.06;;;5.46;69.09
21449;BME280;10885;52.830;13.788;2023-02-13T22:18:56;103308.59;;;5.44;68.96
21449;BME280;10885;52.830;13.788;2023-02-13T22:24:16;103328.91;;;5.37;69.91
21449;BME280;10885;52.830;13.788;2023-02-13T22:29:37;103314.75;;;5.39;69.74
21449;BME280;10885;52.830;13.788;2023-02-13T22:35:00;103324.56;;;5.36;69.68
21449;BME280;10885;52.830;13.788;2023-02-13T22:40:21;103321.88;;;5.42;70.02
21449;BME280;10885;52.830;13.788;2023-02-13T22:45:42;103320.22;;;5.42;69.42
